KJRB/JRB METAR and TAF weather

Enter ICAO airport designator
Station Type Date Time Source
KJRB METAR 2021/09/23 23:37 UTC NOAA

KJRB 232337Z AUTO 26008G16KT 3SM +TSRA BR BKN006 BKN012 OVC020 21/20 A2994 RMK AO2 LTG DSNT S TSB23 CIG 004V008 P0025


Station Type Date Time Source
KJRB Decoded METAR 2021/09/23 23:37 UTC NOAA

Station name not available
Sep 23, 2021 - 07:37 PM EDT / 2021.09.23 2337 UTC
Wind: from the W (260 degrees) at 9 MPH (8 KT) gusting to 18 MPH (16 KT):0
Visibility: 3 mile(s):0
Sky conditions: overcast
Weather: heavy rain with thunder; mist; Lightning observed
Precipitation last hour: 0.25 inches
Temperature: 69 F (21 C)
Dew Point: 68 F (20 C)
Relative Humidity: 94%
Pressure (altimeter): 29.94 in. Hg (1013 hPa)
ob: KJRB 232337Z AUTO 26008G16KT 3SM +TSRA BR BKN006 BKN012 OVC020 21/20 A2994 RMK AO2 LTG DSNT S TSB23 CIG 004V008 P0025
cycle: 23

Station Type Date Time Source
KJRB TAF UTC NOAA

Error!

Example: see airport list